createdAt,value
2022-09-23T00:01:07.523Z,7.94
2022-09-23T00:03:41.893Z,7.87
2022-09-23T00:06:14.860Z,7.84
2022-09-23T00:08:45.435Z,7.80
2022-09-23T00:11:18.548Z,7.80
2022-09-23T00:13:51.259Z,7.83
2022-09-23T00:16:24.104Z,7.87
2022-09-23T00:18:55.308Z,7.91
2022-09-23T00:21:26.346Z,7.92
2022-09-23T00:23:57.129Z,7.92
2022-09-23T00:26:28.022Z,7.90
2022-09-23T00:28:58.632Z,7.88
2022-09-23T00:31:29.571Z,7.81
2022-09-23T00:34:02.064Z,7.70
2022-09-23T00:36:33.406Z,7.65
2022-09-23T00:39:04.702Z,7.65
2022-09-23T00:41:35.735Z,7.64
2022-09-23T00:44:36.957Z,7.61
2022-09-23T00:47:12.602Z,7.58
2022-09-23T00:49:45.451Z,7.57
2022-09-23T00:52:19.171Z,7.56
2022-09-23T00:54:55.079Z,7.55
2022-09-23T00:57:27.135Z,7.53
2022-09-23T00:59:58.248Z,7.50
2022-09-23T01:02:29.396Z,7.49
2022-09-23T01:05:02.186Z,7.53
2022-09-23T01:07:31.218Z,7.53
2022-09-23T01:10:03.084Z,7.50
2022-09-23T01:12:59.849Z,7.48
2022-09-23T01:15:40.571Z,7.41
2022-09-23T01:18:24.478Z,7.36
2022-09-23T01:21:11.375Z,7.31
2022-09-23T01:24:05.629Z,7.26
2022-09-23T01:26:56.755Z,7.27
2022-09-23T01:29:58.021Z,7.32
2022-09-23T01:32:39.428Z,7.34
2022-09-23T01:35:18.207Z,7.32
2022-09-23T01:37:53.375Z,7.28
2022-09-23T01:40:31.006Z,7.20
2022-09-23T01:43:10.524Z,7.12
2022-09-23T01:45:45.331Z,7.04
2022-09-23T01:48:22.949Z,7.09
2022-09-23T01:50:59.588Z,7.20
2022-09-23T01:53:38.830Z,7.23
2022-09-23T01:56:15.123Z,7.26
2022-09-23T01:58:52.248Z,7.27
2022-09-23T02:01:29.623Z,7.23
2022-09-23T02:04:05.811Z,7.19
2022-09-23T02:06:41.439Z,7.13
2022-09-23T02:09:16.819Z,7.04
2022-09-23T02:11:49.728Z,6.97
2022-09-23T02:14:25.468Z,6.95
2022-09-23T02:17:00.061Z,6.96
2022-09-23T02:19:35.393Z,6.98
2022-09-23T02:22:10.122Z,7.00
2022-09-23T02:24:42.011Z,7.05
2022-09-23T02:27:20.336Z,7.03
2022-09-23T02:29:58.368Z,7.01
2022-09-23T02:32:37.263Z,6.97
2022-09-23T02:35:18.023Z,6.87
2022-09-23T02:37:53.172Z,6.79
2022-09-23T02:40:29.193Z,6.76
2022-09-23T02:43:07.347Z,6.76
2022-09-23T02:45:39.182Z,6.78
2022-09-23T02:48:14.890Z,6.83
2022-09-23T02:50:47.714Z,6.87
2022-09-23T02:53:17.251Z,6.88
2022-09-23T02:55:47.966Z,6.89
2022-09-23T02:58:18.884Z,6.89
2022-09-23T03:01:05.065Z,6.84
2022-09-23T03:03:48.516Z,6.73
2022-09-23T03:06:30.419Z,6.70
2022-09-23T03:09:07.365Z,6.68
2022-09-23T03:11:41.606Z,6.71
2022-09-23T03:14:23.333Z,6.72
2022-09-23T03:17:00.555Z,6.68
2022-09-23T03:19:34.319Z,6.64
2022-09-23T03:22:09.763Z,6.58
2022-09-23T03:24:44.773Z,6.55
2022-09-23T03:27:18.706Z,6.49
2022-09-23T03:29:52.395Z,6.50
2022-09-23T03:32:27.981Z,6.53
2022-09-23T03:35:01.879Z,6.51
2022-09-23T03:37:38.718Z,6.51
2022-09-23T03:40:16.124Z,6.46
2022-09-23T03:42:48.911Z,6.37
2022-09-23T03:45:23.052Z,6.33
2022-09-23T03:47:53.959Z,6.32
2022-09-23T03:50:24.822Z,6.30
2022-09-23T03:52:55.762Z,6.26
2022-09-23T03:55:26.428Z,6.22
2022-09-23T03:57:57.026Z,6.22
2022-09-23T04:00:27.998Z,6.18
2022-09-23T04:02:58.560Z,6.13
2022-09-23T04:05:29.357Z,6.14
2022-09-23T04:08:00.079Z,6.16
2022-09-23T04:10:30.638Z,6.08
2022-09-23T04:13:01.241Z,6.01
2022-09-23T04:15:31.859Z,6.02
2022-09-23T04:18:02.416Z,6.07
2022-09-23T04:20:33.110Z,6.02
2022-09-23T04:23:03.723Z,5.98
2022-09-23T04:25:34.442Z,5.89
2022-09-23T04:28:05.299Z,5.92
2022-09-23T04:30:35.954Z,6.00
2022-09-23T04:33:06.779Z,6.02
2022-09-23T04:35:40.345Z,6.05
2022-09-23T04:38:12.035Z,6.04
2022-09-23T04:40:43.022Z,5.98
2022-09-23T04:43:15.565Z,5.93
2022-09-23T04:45:46.710Z,5.87
2022-09-23T04:48:17.666Z,5.88
2022-09-23T04:50:48.857Z,5.87
2022-09-23T04:53:19.779Z,5.91
2022-09-23T04:55:52.284Z,5.92
2022-09-23T04:58:23.048Z,5.90
2022-09-23T05:00:53.708Z,5.91
2022-09-23T05:03:25.053Z,5.90
2022-09-23T05:05:59.895Z,5.87
2022-09-23T05:08:30.703Z,5.82
2022-09-23T05:11:04.787Z,5.84
2022-09-23T05:13:36.448Z,5.93
2022-09-23T05:16:09.779Z,5.97
2022-09-23T05:18:42.857Z,6.02
2022-09-23T05:21:15.344Z,6.11
2022-09-23T05:23:52.408Z,6.17
2022-09-23T05:26:25.469Z,6.20
2022-09-23T05:28:57.412Z,6.15
2022-09-23T05:31:29.920Z,6.12
2022-09-23T05:34:02.360Z,6.12
2022-09-23T05:36:38.384Z,6.16
2022-09-23T05:39:10.533Z,6.17
2022-09-23T05:41:43.482Z,6.22
2022-09-23T05:44:14.156Z,6.27
2022-09-23T05:46:44.830Z,6.28
2022-09-23T05:49:15.523Z,6.28
2022-09-23T05:51:46.443Z,6.28
2022-09-23T05:54:17.306Z,6.34
2022-09-23T05:56:47.919Z,6.52
2022-09-23T05:59:18.534Z,6.77
2022-09-23T06:01:52.044Z,7.05
2022-09-23T06:04:25.429Z,7.45
2022-09-23T06:07:00.346Z,7.70
2022-09-23T06:09:36.547Z,7.91
2022-09-23T06:12:08.321Z,8.19
2022-09-23T06:14:39.005Z,8.55
2022-09-23T06:17:09.660Z,8.84
2022-09-23T06:19:40.296Z,9.09
2022-09-23T06:22:11.902Z,9.35
2022-09-23T06:24:42.623Z,9.57
2022-09-23T06:27:13.419Z,9.75
2022-09-23T06:29:44.028Z,9.95
2022-09-23T06:32:14.779Z,10.19
2022-09-23T06:34:51.436Z,10.45
2022-09-23T06:37:23.396Z,10.72
2022-09-23T06:39:54.920Z,10.98
2022-09-23T06:42:25.566Z,11.24
2022-09-23T06:44:56.194Z,11.50
2022-09-23T06:47:26.846Z,11.75
2022-09-23T06:49:57.748Z,11.99
2022-09-23T06:52:28.785Z,12.17
2022-09-23T06:55:00.987Z,12.33
2022-09-23T06:57:33.854Z,12.58
2022-09-23T07:00:05.192Z,12.86
2022-09-23T07:02:36.337Z,13.13
2022-09-23T07:05:09.472Z,13.35
2022-09-23T07:07:40.217Z,13.58
2022-09-23T07:10:12.794Z,13.77
2022-09-23T07:12:43.359Z,13.93
2022-09-23T07:15:15.395Z,14.12
2022-09-23T07:17:46.038Z,14.22
2022-09-23T07:20:17.968Z,14.41
2022-09-23T07:22:53.223Z,14.63
2022-09-23T07:25:24.183Z,14.74
2022-09-23T07:27:56.778Z,14.87
2022-09-23T07:30:27.518Z,15.02
2022-09-23T07:32:58.231Z,15.20
2022-09-23T07:35:29.143Z,15.31
2022-09-23T07:37:59.808Z,15.36
2022-09-23T07:40:30.545Z,15.40
2022-09-23T07:43:02.095Z,15.41
2022-09-23T07:45:33.902Z,15.45
2022-09-23T07:48:05.283Z,15.52
2022-09-23T07:50:35.966Z,15.65
2022-09-23T07:53:07.937Z,15.82
2022-09-23T07:55:38.946Z,15.90
2022-09-23T07:58:09.492Z,16.03
2022-09-23T08:00:40.555Z,16.06
2022-09-23T08:03:11.334Z,16.10
2022-09-23T08:05:42.162Z,16.18
2022-09-23T08:08:14.156Z,16.25
2022-09-23T08:10:45.907Z,16.36
2022-09-23T08:13:16.443Z,16.47
2022-09-23T08:15:55.195Z,16.60
2022-09-23T08:18:26.655Z,16.81
2022-09-23T08:20:57.251Z,16.93
2022-09-23T08:23:33.283Z,17.04
2022-09-23T08:26:08.497Z,17.14
2022-09-23T08:28:41.099Z,17.27
2022-09-23T08:31:13.713Z,17.40
2022-09-23T08:33:44.426Z,17.51
2022-09-23T08:36:15.086Z,17.64
2022-09-23T08:38:45.852Z,17.77
2022-09-23T08:41:26.453Z,17.92
2022-09-23T08:44:03.580Z,18.08
2022-09-23T08:46:39.148Z,18.20
2022-09-23T08:49:15.195Z,18.28
2022-09-23T08:51:49.031Z,18.33
2022-09-23T08:54:20.474Z,18.42
2022-09-23T08:56:53.295Z,18.50
2022-09-23T08:59:36.808Z,18.55
2022-09-23T09:02:16.606Z,18.50
2022-09-23T09:04:50.738Z,18.53
2022-09-23T09:07:36.530Z,18.60
2022-09-23T09:10:16.610Z,18.72
2022-09-23T09:12:50.903Z,18.82
2022-09-23T09:15:26.624Z,18.94
2022-09-23T09:18:06.537Z,19.04
2022-09-23T09:20:42.637Z,19.16
2022-09-23T09:23:22.709Z,19.26
2022-09-23T09:25:55.564Z,19.33
2022-09-23T09:28:31.124Z,19.40
2022-09-23T09:31:08.065Z,19.49
2022-09-23T09:33:45.865Z,19.51
2022-09-23T09:36:30.872Z,19.50
2022-09-23T09:39:01.885Z,19.51
2022-09-23T09:41:32.941Z,19.56
2022-09-23T09:44:10.985Z,19.59
2022-09-23T09:46:56.744Z,19.52
2022-09-23T09:49:40.103Z,19.47
2022-09-23T09:52:24.316Z,19.50
2022-09-23T09:55:00.588Z,19.58
2022-09-23T09:57:36.356Z,19.52
2022-09-23T10:00:35.443Z,19.44
2022-09-23T10:03:24.332Z,19.40
2022-09-23T10:05:57.717Z,19.16
2022-09-23T10:08:33.455Z,18.90
2022-09-23T10:11:07.006Z,18.66
2022-09-23T10:13:37.951Z,18.64
2022-09-23T10:16:09.535Z,18.46
2022-09-23T10:18:50.807Z,18.26
2022-09-23T10:21:27.933Z,18.35
2022-09-23T10:24:03.133Z,18.49
2022-09-23T10:26:36.233Z,18.63
2022-09-23T10:29:21.265Z,18.78
2022-09-23T10:32:13.418Z,18.93
2022-09-23T10:34:46.794Z,19.06
2022-09-23T10:37:31.226Z,19.18
2022-09-23T10:40:30.209Z,19.24
2022-09-23T10:43:41.261Z,19.24
2022-09-23T10:46:41.750Z,19.19
2022-09-23T10:49:36.582Z,18.97
2022-09-23T10:52:22.296Z,18.73
2022-09-23T10:55:06.665Z,18.52
2022-09-23T10:57:54.212Z,18.34
2022-09-23T11:00:30.235Z,18.20
2022-09-23T11:03:26.337Z,18.24
2022-09-23T11:06:13.314Z,18.31
2022-09-23T11:08:56.400Z,18.38
2022-09-23T11:11:39.409Z,18.44
2022-09-23T11:14:25.998Z,18.43
2022-09-23T11:17:16.250Z,18.43
2022-09-23T11:20:02.834Z,18.29
2022-09-23T11:22:52.769Z,18.24
2022-09-23T11:25:36.248Z,18.12
2022-09-23T11:28:26.128Z,18.00
2022-09-23T11:31:10.274Z,17.87
2022-09-23T11:33:53.611Z,17.81
2022-09-23T11:36:32.924Z,17.72
2022-09-23T11:39:09.362Z,17.62
2022-09-23T11:41:42.413Z,17.55
2022-09-23T11:44:20.586Z,17.52
2022-09-23T11:46:56.905Z,17.51
2022-09-23T11:49:32.538Z,17.53
2022-09-23T11:52:11.475Z,17.57
2022-09-23T11:54:50.656Z,17.58
2022-09-23T11:57:35.610Z,17.65
2022-09-23T12:00:20.076Z,17.64
2022-09-23T12:03:09.842Z,17.77
2022-09-23T12:05:45.844Z,17.92
2022-09-23T12:08:25.585Z,18.01
2022-09-23T12:11:06.089Z,18.06
2022-09-23T12:13:45.977Z,18.06
2022-09-23T12:16:45.733Z,17.99
2022-09-23T12:19:30.929Z,17.93
2022-09-23T12:22:19.386Z,17.98
2022-09-23T12:24:58.515Z,18.06
2022-09-23T12:27:36.985Z,18.07
2022-09-23T12:30:15.370Z,18.04
2022-09-23T12:32:46.648Z,17.96
2022-09-23T12:35:32.197Z,17.85
2022-09-23T12:38:03.989Z,17.70
2022-09-23T12:40:43.880Z,17.62
2022-09-23T12:43:30.295Z,17.56
2022-09-23T12:46:19.468Z,17.53
2022-09-23T12:49:02.179Z,17.51
2022-09-23T12:51:34.104Z,17.50
2022-09-23T12:54:25.492Z,17.48
2022-09-23T12:57:10.284Z,17.45
2022-09-23T13:00:15.569Z,17.42
2022-09-23T13:03:13.892Z,17.41
2022-09-23T13:06:10.949Z,17.39
2022-09-23T13:08:46.862Z,17.37
2022-09-23T13:11:24.123Z,17.35
2022-09-23T13:13:56.268Z,17.34
2022-09-23T13:16:31.352Z,17.31
2022-09-23T13:19:03.555Z,17.25
2022-09-23T13:22:09.210Z,17.23
2022-09-23T13:24:54.309Z,17.19
2022-09-23T13:27:29.044Z,17.19
2022-09-23T13:30:03.270Z,17.20
2022-09-23T13:32:37.975Z,17.20
2022-09-23T13:35:22.745Z,17.21
2022-09-23T13:37:54.586Z,17.20
2022-09-23T13:40:28.177Z,17.20
2022-09-23T13:43:02.244Z,17.21
2022-09-23T13:45:37.660Z,17.21
2022-09-23T13:48:15.826Z,17.21
2022-09-23T13:50:50.455Z,17.19
2022-09-23T13:53:27.039Z,17.19
2022-09-23T13:56:06.580Z,17.23
2022-09-23T13:58:37.858Z,17.22
2022-09-23T14:01:11.217Z,17.18
2022-09-23T14:03:41.927Z,17.14
2022-09-23T14:06:15.243Z,17.10
2022-09-23T14:08:48.714Z,17.06
2022-09-23T14:11:22.578Z,17.02
2022-09-23T14:13:55.133Z,16.97
2022-09-23T14:16:28.112Z,16.90
2022-09-23T14:19:01.199Z,16.83
2022-09-23T14:21:35.327Z,16.77
2022-09-23T14:24:21.558Z,16.72
2022-09-23T14:26:56.995Z,16.69
2022-09-23T14:29:30.578Z,16.67
2022-09-23T14:32:04.280Z,16.67
2022-09-23T14:35:09.273Z,16.65
2022-09-23T14:38:02.535Z,16.64
2022-09-23T14:40:35.960Z,16.64
2022-09-23T14:43:15.753Z,16.63
2022-09-23T14:45:51.818Z,16.63
2022-09-23T14:48:28.925Z,16.67
2022-09-23T14:51:01.862Z,16.69
2022-09-23T14:53:37.006Z,16.68
2022-09-23T14:56:22.738Z,16.68
2022-09-23T14:58:56.116Z,16.68
2022-09-23T15:01:37.279Z,16.69
2022-09-23T15:04:32.298Z,16.69
2022-09-23T15:07:07.572Z,16.69
2022-09-23T15:09:42.722Z,16.71
2022-09-23T15:12:20.693Z,16.69
2022-09-23T15:14:56.572Z,16.66
2022-09-23T15:17:35.088Z,16.63
2022-09-23T15:20:10.017Z,16.59
2022-09-23T15:22:48.341Z,16.55
2022-09-23T15:25:19.892Z,16.52
2022-09-23T15:28:02.393Z,16.49
2022-09-23T15:30:35.424Z,16.45
2022-09-23T15:33:08.229Z,16.40
2022-09-23T15:35:42.781Z,16.35
2022-09-23T15:38:13.389Z,16.31
2022-09-23T15:40:44.941Z,16.23
2022-09-23T15:43:21.193Z,16.25
2022-09-23T15:45:54.273Z,16.20
2022-09-23T15:48:28.650Z,16.15
2022-09-23T15:51:03.941Z,16.07
2022-09-23T15:53:34.821Z,16.04
2022-09-23T15:56:06.191Z,15.98
2022-09-23T15:58:36.879Z,15.91
2022-09-23T16:01:08.431Z,15.84
2022-09-23T16:03:39.170Z,15.76
2022-09-23T16:06:13.880Z,15.69
2022-09-23T16:08:45.215Z,15.63
2022-09-23T16:11:19.823Z,15.58
2022-09-23T16:13:50.537Z,15.50
2022-09-23T16:16:22.174Z,15.47
2022-09-23T16:18:53.288Z,15.41
2022-09-23T16:21:26.623Z,15.37
2022-09-23T16:23:59.133Z,15.32
2022-09-23T16:26:31.665Z,15.28
2022-09-23T16:29:02.703Z,15.26
2022-09-23T16:31:33.403Z,15.24
2022-09-23T16:34:04.102Z,15.22
2022-09-23T16:36:36.356Z,15.20
2022-09-23T16:39:10.158Z,15.16
2022-09-23T16:41:43.923Z,15.11
2022-09-23T16:44:16.289Z,15.06
2022-09-23T16:46:45.347Z,15.01
2022-09-23T16:49:16.109Z,14.93
2022-09-23T16:51:46.680Z,14.94
2022-09-23T16:54:19.295Z,14.90
2022-09-23T16:56:50.550Z,14.86
2022-09-23T16:59:21.348Z,14.81
2022-09-23T17:02:09.658Z,14.77
2022-09-23T17:04:40.471Z,14.72
2022-09-23T17:07:11.137Z,14.68
2022-09-23T17:09:41.790Z,14.63
2022-09-23T17:12:21.083Z,14.59
2022-09-23T17:14:52.475Z,14.55
2022-09-23T17:17:23.387Z,14.51
2022-09-23T17:19:55.996Z,14.46
2022-09-23T17:22:26.648Z,14.43
2022-09-23T17:24:58.003Z,14.39
2022-09-23T17:27:28.728Z,14.36
2022-09-23T17:29:59.412Z,14.33
2022-09-23T17:32:30.200Z,14.29
2022-09-23T17:35:04.533Z,14.26
2022-09-23T17:37:35.290Z,14.21
2022-09-23T17:40:07.339Z,14.17
2022-09-23T17:42:42.643Z,14.15
2022-09-23T17:45:14.625Z,14.11
2022-09-23T17:47:54.802Z,14.07
2022-09-23T17:50:25.534Z,14.01
2022-09-23T17:52:56.219Z,13.98
2022-09-23T17:55:27.035Z,13.94
2022-09-23T17:57:57.674Z,13.92
2022-09-23T18:00:29.003Z,13.87
2022-09-23T18:02:59.744Z,13.83
2022-09-23T18:05:30.432Z,13.80
2022-09-23T18:08:05.778Z,13.77
2022-09-23T18:10:36.802Z,13.76
2022-09-23T18:13:07.771Z,13.73
2022-09-23T18:15:40.686Z,13.72
2022-09-23T18:18:11.380Z,13.71
2022-09-23T18:20:41.941Z,13.69
2022-09-23T18:23:13.269Z,13.65
2022-09-23T18:25:43.966Z,13.61
2022-09-23T18:28:14.544Z,13.55
2022-09-23T18:30:55.101Z,13.48
2022-09-23T18:33:29.187Z,13.40
2022-09-23T18:36:02.285Z,13.29
2022-09-23T18:38:33.570Z,13.19
2022-09-23T18:41:04.377Z,13.15
2022-09-23T18:43:41.448Z,13.09
2022-09-23T18:46:16.533Z,13.03
2022-09-23T18:49:05.238Z,12.98
2022-09-23T18:51:38.396Z,12.92
2022-09-23T18:54:09.777Z,12.87
2022-09-23T18:56:44.617Z,12.81
2022-09-23T18:59:20.655Z,12.77
2022-09-23T19:01:54.034Z,12.72
2022-09-23T19:04:27.279Z,12.65
2022-09-23T19:06:59.236Z,12.60
2022-09-23T19:09:30.160Z,12.53
2022-09-23T19:12:02.395Z,12.48
2022-09-23T19:14:33.122Z,12.47
2022-09-23T19:17:05.277Z,12.50
2022-09-23T19:19:36.246Z,12.54
2022-09-23T19:22:07.027Z,12.58
2022-09-23T19:24:37.995Z,12.60
2022-09-23T19:27:08.729Z,12.60
2022-09-23T19:29:40.457Z,12.59
2022-09-23T19:32:11.341Z,12.57
2022-09-23T19:34:44.235Z,12.53
2022-09-23T19:37:16.505Z,12.46
2022-09-23T19:39:47.773Z,12.37
2022-09-23T19:42:18.478Z,12.30
2022-09-23T19:44:50.565Z,12.29
2022-09-23T19:47:21.416Z,12.28
2022-09-23T19:49:52.553Z,12.25
2022-09-23T19:52:23.837Z,12.20
2022-09-23T19:54:54.809Z,12.14
2022-09-23T19:57:29.611Z,12.09
2022-09-23T20:00:00.613Z,12.03
2022-09-23T20:02:32.282Z,11.98
2022-09-23T20:05:03.159Z,11.94
2022-09-23T20:07:34.080Z,11.89
2022-09-23T20:10:05.482Z,11.88
2022-09-23T20:12:37.107Z,11.90
2022-09-23T20:15:09.404Z,11.89
2022-09-23T20:20:25.722Z,11.88
2022-09-23T20:22:56.641Z,11.87
2022-09-23T20:25:27.322Z,11.84
2022-09-23T20:27:58.290Z,11.81
2022-09-23T20:30:29.721Z,11.75
2022-09-23T20:33:00.805Z,11.70
2022-09-23T20:35:32.981Z,11.64
2022-09-23T20:38:07.856Z,11.60
2022-09-23T20:40:39.410Z,11.55
2022-09-23T20:43:10.434Z,11.51
2022-09-23T20:45:41.341Z,11.47
2022-09-23T20:48:12.104Z,11.44
2022-09-23T20:50:43.089Z,11.44
2022-09-23T20:53:13.821Z,11.43
2022-09-23T20:55:53.273Z,11.42
2022-09-23T20:58:29.229Z,11.41
2022-09-23T21:01:05.713Z,11.39
2022-09-23T21:03:36.647Z,11.34
2022-09-23T21:06:09.652Z,11.28
2022-09-23T21:08:40.702Z,11.20
2022-09-23T21:11:15.937Z,11.15
2022-09-23T21:13:50.397Z,11.08
2022-09-23T21:16:23.200Z,11.03
2022-09-23T21:18:54.566Z,11.00
2022-09-23T21:21:25.342Z,10.98
2022-09-23T21:24:17.502Z,10.98
2022-09-23T21:26:47.437Z,10.96
2022-09-23T21:29:18.268Z,10.98
2022-09-23T21:31:49.647Z,10.99
2022-09-23T21:34:20.460Z,11.05
2022-09-23T21:36:51.274Z,11.02
2022-09-23T21:39:21.932Z,10.99
2022-09-23T21:41:52.486Z,10.97
2022-09-23T21:44:23.151Z,10.95
2022-09-23T21:46:54.475Z,10.92
2022-09-23T21:49:25.356Z,10.89
2022-09-23T21:51:58.942Z,10.85
2022-09-23T21:54:31.323Z,10.84
2022-09-23T21:57:02.062Z,10.83
2022-09-23T21:59:34.058Z,10.84
2022-09-23T22:02:04.787Z,10.89
2022-09-23T22:04:35.484Z,10.93
2022-09-23T22:07:06.220Z,10.97
2022-09-23T22:09:36.889Z,11.00
2022-09-23T22:12:09.924Z,11.02
2022-09-23T22:14:41.050Z,11.03
2022-09-23T22:17:14.599Z,11.03
2022-09-23T22:19:47.254Z,11.03
2022-09-23T22:22:19.979Z,11.02
2022-09-23T22:24:51.844Z,11.00
2022-09-23T22:27:23.671Z,10.98
2022-09-23T22:30:12.127Z,10.95
2022-09-23T22:32:43.675Z,10.94
2022-09-23T22:35:17.727Z,10.96
2022-09-23T22:37:48.624Z,10.99
2022-09-23T22:40:19.596Z,11.03
2022-09-23T22:42:50.327Z,11.04
2022-09-23T22:45:21.079Z,11.04
2022-09-23T22:47:53.284Z,11.05
2022-09-23T22:50:23.947Z,11.06
2022-09-23T22:52:54.654Z,11.05
2022-09-23T22:55:25.408Z,11.04
2022-09-23T22:57:55.941Z,11.03
2022-09-23T23:00:27.907Z,11.02
2022-09-23T23:03:00.240Z,11.00
2022-09-23T23:05:30.915Z,11.01
2022-09-23T23:08:02.228Z,11.03
2022-09-23T23:10:33.139Z,11.03
2022-09-23T23:13:05.330Z,11.03
2022-09-23T23:15:38.518Z,11.02
2022-09-23T23:18:09.288Z,10.99
2022-09-23T23:20:40.153Z,10.96
2022-09-23T23:23:10.806Z,10.97
2022-09-23T23:25:41.514Z,10.97
2022-09-23T23:28:12.139Z,10.96
2022-09-23T23:30:42.796Z,10.94
2022-09-23T23:33:13.395Z,10.91
2022-09-23T23:35:52.591Z,10.90
2022-09-23T23:38:23.227Z,10.91
2022-09-23T23:40:55.466Z,10.93
2022-09-23T23:43:26.263Z,10.91
2022-09-23T23:45:57.238Z,10.88
2022-09-23T23:48:29.183Z,10.87
2022-09-23T23:51:01.403Z,10.85
2022-09-23T23:53:34.700Z,10.84
2022-09-23T23:56:07.926Z,10.82
2022-09-23T23:58:39.266Z,10.79
